createdAt,value
2022-11-10T00:01:46.546Z,12.30
2022-11-10T00:05:10.480Z,12.35
2022-11-10T00:08:32.403Z,12.37
2022-11-10T00:11:54.377Z,12.23
2022-11-10T00:15:33.439Z,12.17
2022-11-10T00:18:57.840Z,12.09
2022-11-10T00:22:23.993Z,12.03
2022-11-10T00:25:47.523Z,11.92
2022-11-10T00:29:09.189Z,11.81
2022-11-10T00:32:31.590Z,11.68
2022-11-10T00:35:53.326Z,11.61
2022-11-10T00:39:16.221Z,11.66
2022-11-10T00:42:41.175Z,11.81
2022-11-10T00:46:03.022Z,11.95
2022-11-10T00:49:24.931Z,12.00
2022-11-10T00:52:46.621Z,12.09
2022-11-10T00:56:09.302Z,12.10
2022-11-10T00:59:30.755Z,12.27
2022-11-10T01:02:52.082Z,12.36
2022-11-10T01:06:17.446Z,12.40
2022-11-10T01:09:39.146Z,12.33
2022-11-10T01:13:02.151Z,12.37
2022-11-10T01:16:27.806Z,12.35
2022-11-10T01:19:49.403Z,12.32
2022-11-10T01:23:11.585Z,12.32
2022-11-10T01:26:33.568Z,12.29
2022-11-10T01:29:56.756Z,12.22
2022-11-10T01:33:18.723Z,12.21
2022-11-10T01:36:40.522Z,12.15
2022-11-10T01:40:03.895Z,12.09
2022-11-10T01:43:26.147Z,11.99
2022-11-10T01:46:49.263Z,12.02
2022-11-10T01:50:10.828Z,12.01
2022-11-10T01:53:36.070Z,12.00
2022-11-10T01:57:02.821Z,11.91
2022-11-10T02:00:25.163Z,11.96
2022-11-10T02:03:52.098Z,11.90
2022-11-10T02:07:14.493Z,11.92
2022-11-10T02:10:37.288Z,11.86
2022-11-10T02:14:00.204Z,11.89
2022-11-10T02:17:21.574Z,11.88
2022-11-10T02:20:47.468Z,11.85
2022-11-10T02:24:09.833Z,11.83
2022-11-10T02:27:34.196Z,11.83
2022-11-10T02:30:56.067Z,11.76
2022-11-10T02:34:18.736Z,11.74
2022-11-10T02:37:43.865Z,11.78
2022-11-10T02:41:05.579Z,11.80
2022-11-10T02:44:27.189Z,11.81
2022-11-10T02:47:48.911Z,11.85
2022-11-10T02:51:10.736Z,11.89
2022-11-10T02:54:33.852Z,11.91
2022-11-10T02:57:57.724Z,11.90
2022-11-10T03:01:22.103Z,11.94
2022-11-10T03:04:44.045Z,12.01
2022-11-10T03:08:06.537Z,12.00
2022-11-10T03:11:32.330Z,12.08
2022-11-10T03:14:54.122Z,12.15
2022-11-10T03:18:15.842Z,12.17
2022-11-10T03:21:37.623Z,12.22
2022-11-10T03:25:01.280Z,12.22
2022-11-10T03:28:24.619Z,12.18
2022-11-10T03:31:46.346Z,12.20
2022-11-10T03:35:09.342Z,12.22
2022-11-10T03:38:31.064Z,12.22
2022-11-10T03:41:52.616Z,12.23
2022-11-10T03:45:16.886Z,12.19
2022-11-10T03:48:38.433Z,12.15
2022-11-10T03:52:00.057Z,12.15
2022-11-10T03:55:22.003Z,12.10
2022-11-10T03:58:45.380Z,12.11
2022-11-10T04:02:09.416Z,12.11
2022-11-10T04:05:49.272Z,12.07
2022-11-10T04:09:11.181Z,12.01
2022-11-10T04:12:50.413Z,12.03
2022-11-10T04:16:12.586Z,11.99
2022-11-10T04:19:35.429Z,11.94
2022-11-10T04:23:14.651Z,11.95
2022-11-10T04:26:38.871Z,11.93
2022-11-10T04:30:01.062Z,11.92
2022-11-10T04:33:23.272Z,11.92
2022-11-10T04:36:47.046Z,11.83
2022-11-10T04:40:10.668Z,11.79
2022-11-10T04:43:33.189Z,11.73
2022-11-10T04:46:54.971Z,11.73
2022-11-10T04:50:16.861Z,11.65
2022-11-10T04:53:40.139Z,11.58
2022-11-10T04:57:01.584Z,11.53
2022-11-10T05:00:23.339Z,11.55
2022-11-10T05:03:45.832Z,11.56
2022-11-10T05:07:09.837Z,11.40
2022-11-10T05:10:32.943Z,11.40
2022-11-10T05:13:54.503Z,11.37
2022-11-10T05:17:16.038Z,11.33
2022-11-10T05:20:37.802Z,11.26
2022-11-10T05:23:59.214Z,11.27
2022-11-10T05:27:22.935Z,11.16
2022-11-10T05:30:44.944Z,11.10
2022-11-10T05:34:06.449Z,11.08
2022-11-10T05:37:27.869Z,11.04
2022-11-10T05:40:49.444Z,10.99
2022-11-10T05:44:12.430Z,10.93
2022-11-10T05:47:33.776Z,10.89
2022-11-10T05:50:56.271Z,10.81
2022-11-10T05:54:18.185Z,10.81
2022-11-10T05:57:39.573Z,10.79
2022-11-10T06:01:02.212Z,10.85
2022-11-10T06:04:23.816Z,10.87
2022-11-10T06:07:45.544Z,10.86
2022-11-10T06:11:07.241Z,10.97
2022-11-10T06:14:28.746Z,10.89
2022-11-10T06:17:51.677Z,10.89
2022-11-10T06:21:13.165Z,10.87
2022-11-10T06:24:34.587Z,10.78
2022-11-10T06:27:56.093Z,10.71
2022-11-10T06:31:17.723Z,10.70
2022-11-10T06:34:40.475Z,10.68
2022-11-10T06:38:03.827Z,10.57
2022-11-10T06:41:25.838Z,10.53
2022-11-10T06:44:47.296Z,10.55
2022-11-10T06:48:14.132Z,10.51
2022-11-10T06:51:36.790Z,10.45
2022-11-10T06:54:59.223Z,10.25
2022-11-10T06:58:20.470Z,10.24
2022-11-10T07:01:44.976Z,10.26
2022-11-10T07:05:07.470Z,10.26
2022-11-10T07:08:30.909Z,10.24
2022-11-10T07:11:53.017Z,10.27
2022-11-10T07:15:14.563Z,10.23
2022-11-10T07:18:36.560Z,10.36
2022-11-10T07:21:58.714Z,10.49
2022-11-10T07:25:21.621Z,10.58
2022-11-10T07:28:43.250Z,10.67
2022-11-10T07:32:05.258Z,10.72
2022-11-10T07:35:28.468Z,10.82
2022-11-10T07:38:49.786Z,10.86
2022-11-10T07:42:12.833Z,10.87
2022-11-10T07:45:35.215Z,10.87
2022-11-10T07:48:56.944Z,10.89
2022-11-10T07:52:18.495Z,10.86
2022-11-10T07:55:41.864Z,10.85
2022-11-10T07:59:04.677Z,10.93
2022-11-10T08:02:26.567Z,11.03
2022-11-10T08:05:48.876Z,11.11
2022-11-10T08:09:10.446Z,11.19
2022-11-10T08:12:33.780Z,11.27
2022-11-10T08:15:59.419Z,11.33
2022-11-10T08:19:21.075Z,11.37
2022-11-10T08:22:43.619Z,11.44
2022-11-10T08:26:05.462Z,11.55
2022-11-10T08:29:27.216Z,11.71
2022-11-10T08:32:50.374Z,11.81
2022-11-10T08:36:11.757Z,11.94
2022-11-10T08:39:40.049Z,11.93
2022-11-10T08:43:03.197Z,12.00
2022-11-10T08:46:24.647Z,12.04
2022-11-10T08:49:47.799Z,12.18
2022-11-10T08:53:12.742Z,12.17
2022-11-10T08:56:35.407Z,12.24
2022-11-10T08:59:56.726Z,12.25
2022-11-10T09:03:20.738Z,12.33
2022-11-10T09:06:43.941Z,12.36
2022-11-10T09:10:07.886Z,12.38
2022-11-10T09:13:30.820Z,12.44
2022-11-10T09:16:52.762Z,12.54
2022-11-10T09:20:14.165Z,12.53
2022-11-10T09:23:37.275Z,12.60
2022-11-10T09:26:58.707Z,12.68
2022-11-10T09:30:21.412Z,12.73
2022-11-10T09:33:43.063Z,12.70
2022-11-10T09:37:05.329Z,12.71
2022-11-10T09:40:38.818Z,12.73
2022-11-10T09:44:06.453Z,12.74
2022-11-10T09:47:56.675Z,12.85
2022-11-10T09:51:25.449Z,12.85
2022-11-10T09:54:54.951Z,12.74
2022-11-10T09:58:18.877Z,12.85
2022-11-10T10:01:48.460Z,12.87
2022-11-10T10:05:51.527Z,12.91
2022-11-10T10:09:22.991Z,12.92
2022-11-10T10:13:01.455Z,13.01
2022-11-10T10:16:34.489Z,13.02
2022-11-10T10:20:04.007Z,13.07
2022-11-10T10:24:02.229Z,13.15
2022-11-10T10:27:22.388Z,13.26
2022-11-10T10:30:45.766Z,13.28
2022-11-10T10:34:14.862Z,13.33
2022-11-10T10:37:45.161Z,13.43
2022-11-10T10:41:18.407Z,13.55
2022-11-10T10:45:14.796Z,13.64
2022-11-10T10:48:36.184Z,13.77
2022-11-10T10:52:07.914Z,13.86
2022-11-10T10:55:31.509Z,13.86
2022-11-10T10:58:55.639Z,13.80
2022-11-10T11:02:28.854Z,13.92
2022-11-10T11:06:07.790Z,13.98
2022-11-10T11:09:39.844Z,13.96
2022-11-10T11:13:15.844Z,13.94
2022-11-10T11:16:47.871Z,13.99
2022-11-10T11:20:15.619Z,14.40
2022-11-10T11:24:00.787Z,14.79
2022-11-10T11:27:30.821Z,14.78
2022-11-10T11:31:06.064Z,14.36
2022-11-10T11:34:34.779Z,14.11
2022-11-10T11:38:09.404Z,14.13
2022-11-10T11:41:40.165Z,14.28
2022-11-10T11:45:19.457Z,14.11
2022-11-10T11:48:52.238Z,14.01
2022-11-10T11:52:23.821Z,13.97
2022-11-10T11:56:03.034Z,13.87
2022-11-10T11:59:50.282Z,13.93
2022-11-10T12:03:33.100Z,14.18
2022-11-10T12:07:09.406Z,14.43
2022-11-10T12:10:45.459Z,14.83
2022-11-10T12:14:20.271Z,14.69
2022-11-10T12:17:52.117Z,14.62
2022-11-10T12:21:24.411Z,14.56
2022-11-10T12:25:00.493Z,14.49
2022-11-10T12:28:27.125Z,14.45
2022-11-10T12:31:53.255Z,14.37
2022-11-10T12:35:21.878Z,14.47
2022-11-10T12:38:59.686Z,14.32
2022-11-10T12:42:24.504Z,14.45
2022-11-10T12:45:50.511Z,14.57
2022-11-10T12:49:19.512Z,14.58
2022-11-10T12:52:46.461Z,14.59
2022-11-10T12:56:17.085Z,14.62
2022-11-10T12:59:40.342Z,14.52
2022-11-10T13:03:02.518Z,14.56
2022-11-10T13:06:29.810Z,14.54
2022-11-10T13:09:51.601Z,14.63
2022-11-10T13:13:15.786Z,14.64
2022-11-10T13:16:54.010Z,14.65
2022-11-10T13:20:48.230Z,14.56
2022-11-10T13:24:24.986Z,14.70
2022-11-10T13:27:53.378Z,14.86
2022-11-10T13:31:53.014Z,14.84
2022-11-10T13:35:54.744Z,14.92
2022-11-10T13:39:24.165Z,14.87
2022-11-10T13:42:47.282Z,14.74
2022-11-10T13:46:09.294Z,14.66
2022-11-10T13:49:52.563Z,14.66
2022-11-10T13:53:28.262Z,14.63
2022-11-10T13:57:06.445Z,14.68
2022-11-10T14:00:30.849Z,14.46
2022-11-10T14:04:01.950Z,14.41
2022-11-10T14:07:26.390Z,14.51
2022-11-10T14:10:53.556Z,14.52
2022-11-10T14:14:19.714Z,14.36
2022-11-10T14:17:45.649Z,14.42
2022-11-10T14:21:11.176Z,14.46
2022-11-10T14:24:39.347Z,14.36
2022-11-10T14:28:00.872Z,14.30
2022-11-10T14:31:25.640Z,14.20
2022-11-10T14:34:50.531Z,14.19
2022-11-10T14:38:21.231Z,14.13
2022-11-10T14:41:49.482Z,14.13
2022-11-10T14:45:18.648Z,14.11
2022-11-10T14:48:43.189Z,14.08
2022-11-10T14:52:05.065Z,14.08
2022-11-10T14:55:30.711Z,14.06
2022-11-10T14:58:54.076Z,14.06
2022-11-10T15:02:18.867Z,14.05
2022-11-10T15:05:40.799Z,14.06
2022-11-10T15:09:13.977Z,14.05
2022-11-10T15:12:41.779Z,14.03
2022-11-10T15:16:26.286Z,13.98
2022-11-10T15:19:55.959Z,13.76
2022-11-10T15:23:24.790Z,13.76
2022-11-10T15:26:48.897Z,13.65
2022-11-10T15:30:23.832Z,13.61
2022-11-10T15:33:49.798Z,13.56
2022-11-10T15:37:27.418Z,13.47
2022-11-10T15:41:05.939Z,13.33
2022-11-10T15:44:29.266Z,13.28
2022-11-10T15:47:51.101Z,13.24
2022-11-10T15:51:21.367Z,13.16
2022-11-10T15:54:46.565Z,13.02
2022-11-10T15:58:13.828Z,12.72
2022-11-10T16:01:35.551Z,12.48
2022-11-10T16:04:59.939Z,12.25
2022-11-10T16:08:24.548Z,12.06
2022-11-10T16:11:47.233Z,11.97
2022-11-10T16:15:20.229Z,11.83
2022-11-10T16:18:43.998Z,11.70
2022-11-10T16:22:05.599Z,11.67
2022-11-10T16:25:28.310Z,11.48
2022-11-10T16:28:50.838Z,11.51
2022-11-10T16:32:12.801Z,11.34
2022-11-10T16:35:34.532Z,11.31
2022-11-10T16:38:57.064Z,11.25
2022-11-10T16:42:19.759Z,11.12
2022-11-10T16:45:43.965Z,11.01
2022-11-10T16:49:08.267Z,10.99
2022-11-10T16:52:29.699Z,10.88
2022-11-10T16:55:51.504Z,10.83
2022-11-10T16:59:14.869Z,10.69
2022-11-10T17:02:37.426Z,10.57
2022-11-10T17:05:59.841Z,10.58
2022-11-10T17:09:26.012Z,10.54
2022-11-10T17:12:48.388Z,10.52
2022-11-10T17:16:28.349Z,10.52
2022-11-10T17:19:51.822Z,10.67
2022-11-10T17:23:15.759Z,10.85
2022-11-10T17:26:37.334Z,10.98
2022-11-10T17:29:58.668Z,11.17
2022-11-10T17:33:22.103Z,11.21
2022-11-10T17:36:43.778Z,11.25
2022-11-10T17:40:19.344Z,11.33
2022-11-10T17:43:45.399Z,11.47
2022-11-10T17:47:09.586Z,11.50
2022-11-10T17:50:33.250Z,11.52
2022-11-10T17:53:55.042Z,11.55
2022-11-10T17:57:17.262Z,11.58
2022-11-10T18:00:39.033Z,11.55
2022-11-10T18:04:00.863Z,11.52
2022-11-10T18:07:23.726Z,11.53
2022-11-10T18:10:50.344Z,11.56
2022-11-10T18:14:12.855Z,11.54
2022-11-10T18:17:34.666Z,11.62
2022-11-10T18:20:57.716Z,11.67
2022-11-10T18:24:20.539Z,11.81
2022-11-10T18:27:42.472Z,11.90
2022-11-10T18:31:08.197Z,11.91
2022-11-10T18:34:30.058Z,11.94
2022-11-10T18:37:51.536Z,12.02
2022-11-10T18:41:31.779Z,12.05
2022-11-10T18:44:54.869Z,12.04
2022-11-10T18:48:16.642Z,12.00
2022-11-10T18:51:38.400Z,11.97
2022-11-10T18:55:00.029Z,11.98
2022-11-10T18:58:23.023Z,11.98
2022-11-10T19:01:44.864Z,12.00
2022-11-10T19:05:07.368Z,11.98
2022-11-10T19:08:30.288Z,12.05
2022-11-10T19:11:51.972Z,12.04
2022-11-10T19:15:14.738Z,12.07
2022-11-10T19:18:36.500Z,12.05
2022-11-10T19:21:58.701Z,12.03
2022-11-10T19:25:20.974Z,11.95
2022-11-10T19:28:43.583Z,11.96
2022-11-10T19:32:06.798Z,11.99
2022-11-10T19:35:28.569Z,11.94
2022-11-10T19:38:50.510Z,11.95
2022-11-10T19:42:12.232Z,11.96
2022-11-10T19:45:35.334Z,11.99
2022-11-10T19:48:58.819Z,12.02
2022-11-10T19:52:20.356Z,12.03
2022-11-10T19:55:42.675Z,12.14
2022-11-10T19:59:04.309Z,12.12
2022-11-10T20:02:25.741Z,12.15
2022-11-10T20:05:48.755Z,12.12
2022-11-10T20:09:10.891Z,12.20
2022-11-10T20:12:32.400Z,12.22
2022-11-10T20:15:53.755Z,12.20
2022-11-10T20:19:15.177Z,12.24
2022-11-10T20:22:37.954Z,12.23
2022-11-10T20:26:05.767Z,12.26
2022-11-10T20:29:28.271Z,12.30
2022-11-10T20:32:50.318Z,12.33
2022-11-10T20:36:20.237Z,12.32
2022-11-10T20:39:43.730Z,12.34
2022-11-10T20:43:06.092Z,12.36
2022-11-10T20:46:52.881Z,12.39
2022-11-10T20:50:15.402Z,12.35
2022-11-10T20:53:39.678Z,12.36
2022-11-10T20:57:02.736Z,12.36
2022-11-10T21:00:24.393Z,12.30
2022-11-10T21:03:45.952Z,12.28
2022-11-10T21:07:07.545Z,12.24
2022-11-10T21:10:29.180Z,12.29
2022-11-10T21:13:52.169Z,12.25
2022-11-10T21:17:13.742Z,12.25
2022-11-10T21:20:35.582Z,12.21
2022-11-10T21:23:58.357Z,12.24
2022-11-10T21:27:20.534Z,12.21
2022-11-10T21:30:43.425Z,12.23
2022-11-10T21:34:04.995Z,12.20
2022-11-10T21:37:26.915Z,12.12
2022-11-10T21:40:48.300Z,12.09
2022-11-10T21:44:09.763Z,12.08
2022-11-10T21:47:35.201Z,12.03
2022-11-10T21:51:00.910Z,11.88
2022-11-10T21:54:22.703Z,11.73
2022-11-10T21:57:44.622Z,11.73
2022-11-10T22:01:08.807Z,11.64
2022-11-10T22:04:33.013Z,11.52
2022-11-10T22:07:54.880Z,11.48
2022-11-10T22:11:36.083Z,11.42
2022-11-10T22:15:15.615Z,11.23
2022-11-10T22:18:41.594Z,11.25
2022-11-10T22:22:04.638Z,11.19
2022-11-10T22:25:26.665Z,11.14
2022-11-10T22:28:48.248Z,11.08
2022-11-10T22:32:09.517Z,11.06
2022-11-10T22:35:46.135Z,11.02
2022-11-10T22:39:09.150Z,10.98
2022-11-10T22:42:48.354Z,10.92
2022-11-10T22:46:09.868Z,10.92
2022-11-10T22:49:31.294Z,10.89
2022-11-10T22:52:53.328Z,10.85
2022-11-10T22:56:16.466Z,10.82
2022-11-10T22:59:37.998Z,10.75
2022-11-10T23:02:59.946Z,10.72
2022-11-10T23:06:21.520Z,10.68
2022-11-10T23:09:43.377Z,10.60
2022-11-10T23:13:06.123Z,10.53
2022-11-10T23:16:30.885Z,10.46
2022-11-10T23:19:52.647Z,10.42
2022-11-10T23:23:14.113Z,10.36
2022-11-10T23:26:36.323Z,10.33
2022-11-10T23:29:59.124Z,10.22
2022-11-10T23:33:20.896Z,10.19
2022-11-10T23:36:42.973Z,10.17
2022-11-10T23:40:05.672Z,10.13
2022-11-10T23:43:27.872Z,10.06
2022-11-10T23:46:51.043Z,10.02
2022-11-10T23:50:12.618Z,9.96
2022-11-10T23:53:34.624Z,9.96
2022-11-10T23:56:56.235Z,9.92
